Time;durP1;ratioP1;P1;durP2;ratioP2;P2;SDS_P1;SDS_P2;PMS_P1;PMS_P2;Temp;Humidity;BMP_temperature;BMP_pressure;BME280_temperature;BME280_humidity;BME280_pressure;Samples;Min_cycle;Max_cycle;Signal;HPM_P1;HPM_P2
2022/11/27 00:02:11;;;;;;;207.43;107.60;;;6.10;99.90;;;;;;5135253;28;20107;-62
2022/11/27 00:04:37;;;;;;;191.07;104.63;;;6.10;99.90;;;;;;5135351;28;20031;-62
2022/11/27 00:07:03;;;;;;;213.27;116.93;;;6.10;99.90;;;;;;5135199;28;20080;-63
2022/11/27 00:09:29;;;;;;;204.73;112.45;;;6.00;99.90;;;;;;5135079;28;20053;-62
2022/11/27 00:11:54;;;;;;;192.73;105.30;;;6.00;99.90;;;;;;5135215;28;20034;-62
2022/11/27 00:14:20;;;;;;;200.82;106.85;;;6.00;99.90;;;;;;5135153;28;20399;-62
2022/11/27 00:16:46;;;;;;;203.02;114.03;;;6.10;99.90;;;;;;5135208;28;20027;-62
2022/11/27 00:19:12;;;;;;;242.68;126.57;;;6.10;99.90;;;;;;5135088;28;20310;-63
2022/11/27 00:21:38;;;;;;;244.02;129.93;;;6.10;99.90;;;;;;5135023;28;20094;-62
2022/11/27 00:24:06;;;;;;;203.77;113.45;;;6.10;99.90;;;;;;5135057;28;20020;-62
2022/11/27 00:26:32;;;;;;;208.77;111.45;;;6.00;99.90;;;;;;5135170;28;20050;-62
2022/11/27 00:29:00;;;;;;;209.68;109.57;;;6.00;99.90;;;;;;5137453;27;20312;-62
2022/11/27 00:31:30;;;;;;;201.73;109.47;;;6.10;99.90;;;;;;5138715;27;20023;-62
2022/11/27 00:33:58;;;;;;;214.02;114.50;;;6.10;99.90;;;;;;5138782;27;20034;-62
2022/11/27 00:36:29;;;;;;;212.80;114.35;;;6.10;99.90;;;;;;5138790;27;20291;-62
2022/11/27 00:38:55;;;;;;;217.63;116.60;;;6.10;99.90;;;;;;5138805;27;20029;-62
2022/11/27 00:41:23;;;;;;;225.88;121.35;;;6.00;99.90;;;;;;5138704;27;20025;-63
2022/11/27 00:43:50;;;;;;;242.43;127.88;;;6.00;99.90;;;;;;5138830;27;20027;-63
2022/11/27 00:46:19;;;;;;;238.90;122.50;;;6.00;99.90;;;;;;5138576;27;20023;-62
2022/11/27 00:48:45;;;;;;;248.52;128.32;;;6.10;99.90;;;;;;5138519;27;20131;-62
2022/11/27 00:51:15;;;;;;;248.52;129.68;;;6.00;99.90;;;;;;5138534;27;20079;-63
2022/11/27 00:53:41;;;;;;;239.43;127.75;;;6.00;99.90;;;;;;5138531;27;20193;-62
2022/11/27 00:56:08;;;;;;;260.75;134.90;;;6.00;99.90;;;;;;5138089;27;20024;-62
2022/11/27 00:58:34;;;;;;;248.68;132.30;;;6.00;99.90;;;;;;5138468;27;20019;-62
2022/11/27 01:01:02;;;;;;;268.98;135.93;;;6.00;99.90;;;;;;5138341;27;20023;-62
2022/11/27 01:03:29;;;;;;;267.80;140.52;;;6.10;99.90;;;;;;5138261;27;20377;-62
2022/11/27 01:05:55;;;;;;;271.27;140.57;;;6.10;99.90;;;;;;5138229;27;20143;-62
2022/11/27 01:08:22;;;;;;;265.60;139.32;;;6.10;99.90;;;;;;5138077;27;20106;-63
2022/11/27 01:10:54;;;;;;;295.35;151.35;;;6.10;99.90;;;;;;5138233;27;20062;-63
2022/11/27 01:13:24;;;;;;;272.10;146.30;;;6.00;99.90;;;;;;5138045;27;20135;-63
2022/11/27 01:16:01;;;;;;;275.15;145.43;;;6.00;99.90;;;;;;5138034;27;20118;-63
2022/11/27 01:18:28;;;;;;;270.40;144.05;;;6.00;99.90;;;;;;5137883;27;20064;-62
2022/11/27 01:20:54;;;;;;;269.60;142.98;;;6.10;99.90;;;;;;5137647;27;20363;-62
2022/11/27 01:23:20;;;;;;;254.95;136.57;;;6.10;99.90;;;;;;5138238;27;20028;-63
2022/11/27 01:25:47;;;;;;;259.52;137.93;;;6.10;99.90;;;;;;5138248;27;20031;-62
2022/11/27 01:28:13;;;;;;;255.57;133.40;;;6.10;99.90;;;;;;5137744;27;20043;-63
2022/11/27 01:30:39;;;;;;;255.07;133.10;;;6.10;99.90;;;;;;5137691;27;20074;-62
2022/11/27 01:33:05;;;;;;;236.65;126.70;;;6.00;99.90;;;;;;5137570;27;20019;-62
2022/11/27 01:35:31;;;;;;;226.23;120.25;;;6.00;99.90;;;;;;5137630;27;20034;-63
2022/11/27 01:37:57;;;;;;;235.00;124.35;;;6.00;99.90;;;;;;5137620;27;20024;-63
2022/11/27 01:40:24;;;;;;;226.02;120.15;;;6.00;99.90;;;;;;5136781;27;20031;-62
2022/11/27 01:42:50;;;;;;;226.23;120.65;;;6.10;99.90;;;;;;5137612;27;20054;-63
2022/11/27 01:45:18;;;;;;;219.88;113.93;;;6.00;99.90;;;;;;5118890;27;20027;-63
2022/11/27 01:47:46;;;;;;;217.48;115.07;;;6.00;99.90;;;;;;5137519;27;20053;-63
2022/11/27 01:50:27;;;;;;;222.13;115.35;;;6.00;99.90;;;;;;5137245;27;20027;-63
2022/11/27 01:52:59;;;;;;;218.52;113.35;;;6.00;99.90;;;;;;5137300;27;20055;-62
2022/11/27 01:55:52;;;;;;;206.40;110.95;;;6.00;99.90;;;;;;5137253;27;20076;-62
2022/11/27 01:58:23;;;;;;;219.88;113.03;;;6.00;99.90;;;;;;5126752;27;20039;-63
2022/11/27 02:00:49;;;;;;;204.93;110.22;;;5.90;99.90;;;;;;5118611;27;20027;-63
2022/11/27 02:03:15;;;;;;;232.48;127.35;;;5.90;99.90;;;;;;5136945;27;20441;-62
2022/11/27 02:05:41;;;;;;;234.75;125.55;;;5.90;99.90;;;;;;5137143;27;20032;-63
2022/11/27 02:08:10;;;;;;;224.60;120.15;;;5.90;99.90;;;;;;5137002;27;20034;-62
2022/11/27 02:10:53;;;;;;;221.45;120.78;;;5.90;99.90;;;;;;5136873;27;20506;-63
2022/11/27 02:13:40;;;;;;;227.20;121.65;;;5.90;99.90;;;;;;5136956;27;20024;-63
2022/11/27 02:16:35;;;;;;;229.02;120.88;;;5.90;99.90;;;;;;5118419;27;20083;-62
2022/11/27 02:19:24;;;;;;;229.88;121.40;;;5.90;99.90;;;;;;5097950;28;20059;-62
2022/11/27 02:21:50;;;;;;;229.45;122.53;;;5.90;99.90;;;;;;5115972;28;20035;-63
2022/11/27 02:24:37;;;;;;;230.32;122.30;;;5.90;99.90;;;;;;5116148;28;20051;-62
2022/11/27 02:27:15;;;;;;;243.60;125.35;;;5.90;99.90;;;;;;5116127;28;20027;-62
2022/11/27 02:29:43;;;;;;;231.68;125.60;;;5.80;99.90;;;;;;5115894;28;20270;-62
2022/11/27 02:32:20;;;;;;;229.30;122.93;;;5.80;99.90;;;;;;5115863;28;20034;-63
2022/11/27 02:34:58;;;;;;;220.45;116.85;;;5.80;99.90;;;;;;5116016;28;20099;-62
2022/11/27 02:37:38;;;;;;;230.85;119.53;;;5.80;99.90;;;;;;5115861;28;20041;-63
2022/11/27 02:40:11;;;;;;;215.00;116.80;;;5.90;99.90;;;;;;5115853;28;20102;-62
2022/11/27 02:42:53;;;;;;;217.50;119.45;;;6.00;99.90;;;;;;5115808;28;20031;-63
2022/11/27 02:45:26;;;;;;;229.98;125.93;;;6.00;99.90;;;;;;5115652;28;20053;-62
2022/11/27 02:47:54;;;;;;;225.65;120.78;;;6.00;99.90;;;;;;5115694;28;20038;-63
2022/11/27 02:50:24;;;;;;;231.43;128.18;;;5.90;99.90;;;;;;5115626;28;20031;-62
2022/11/27 02:52:53;;;;;;;229.38;123.18;;;5.90;99.90;;;;;;5115433;28;20065;-62
2022/11/27 02:55:24;;;;;;;228.40;123.65;;;5.90;99.90;;;;;;5115514;28;20063;-63
2022/11/27 02:57:54;;;;;;;219.98;119.13;;;5.80;99.90;;;;;;5115469;28;20028;-62
2022/11/27 03:00:20;;;;;;;213.32;117.05;;;5.80;99.90;;;;;;5115368;28;20048;-62
2022/11/27 03:02:53;;;;;;;223.90;118.57;;;5.70;99.90;;;;;;5115894;28;20124;-62
2022/11/27 03:05:22;;;;;;;228.27;119.43;;;5.80;99.90;;;;;;5096940;28;20076;-63
2022/11/27 03:07:58;;;;;;;221.43;120.00;;;5.80;99.90;;;;;;5115288;28;20034;-63
2022/11/27 03:10:43;;;;;;;238.13;126.22;;;5.70;99.90;;;;;;5115273;28;20030;-62
2022/11/27 03:13:09;;;;;;;262.67;134.18;;;5.80;99.90;;;;;;5115017;28;20055;-62
2022/11/27 03:15:59;;;;;;;272.30;136.07;;;5.80;99.90;;;;;;5115027;28;20114;-62
2022/11/27 03:18:51;;;;;;;251.07;132.88;;;5.80;99.90;;;;;;5114999;28;20441;-62
2022/11/27 03:21:39;;;;;;;232.18;125.13;;;5.80;99.90;;;;;;5115063;28;20027;-62
2022/11/27 03:24:07;;;;;;;232.70;122.93;;;5.80;99.90;;;;;;5115056;28;20020;-63
2022/11/27 03:26:34;;;;;;;241.07;131.07;;;5.80;99.90;;;;;;5115110;28;20026;-63
2022/11/27 03:29:02;;;;;;;238.82;124.47;;;5.80;99.90;;;;;;5115287;28;20024;-62
2022/11/27 03:31:29;;;;;;;217.57;117.63;;;5.80;99.90;;;;;;5114836;28;20054;-63
2022/11/27 03:33:55;;;;;;;217.27;115.40;;;5.70;99.90;;;;;;5114830;28;20348;-62
2022/11/27 03:36:21;;;;;;;228.25;125.50;;;5.80;99.90;;;;;;5114933;28;20028;-62
2022/11/27 03:38:49;;;;;;;248.80;131.32;;;5.80;99.90;;;;;;5114834;28;20397;-63
2022/11/27 03:41:37;;;;;;;251.55;130.02;;;5.80;99.90;;;;;;5115017;28;20646;-63
2022/11/27 03:44:30;;;;;;;233.13;122.78;;;5.80;99.90;;;;;;5114568;28;20019;-62
2022/11/27 03:47:09;;;;;;;241.02;127.10;;;5.80;99.90;;;;;;5114674;28;20035;-62
2022/11/27 03:50:02;;;;;;;239.85;126.63;;;5.80;99.90;;;;;;5114804;28;20031;-62
2022/11/27 03:52:51;;;;;;;234.38;125.18;;;5.80;99.90;;;;;;5094587;28;20139;-63
2022/11/27 03:55:41;;;;;;;250.43;129.13;;;5.80;99.90;;;;;;5091333;28;20028;-62
2022/11/27 03:58:13;;;;;;;238.55;122.45;;;5.80;99.90;;;;;;5094412;28;20035;-62
2022/11/27 04:00:42;;;;;;;224.13;118.47;;;5.90;99.90;;;;;;5094414;28;20119;-62
2022/11/27 04:03:10;;;;;;;228.65;124.00;;;6.00;99.90;;;;;;5095596;28;20469;-62
2022/11/27 04:05:37;;;;;;;229.18;120.55;;;6.00;99.90;;;;;;5098433;28;20050;-63
2022/11/27 04:08:03;;;;;;;230.77;122.50;;;6.10;99.90;;;;;;5098402;28;20210;-63
2022/11/27 04:10:29;;;;;;;230.98;120.93;;;6.10;99.90;;;;;;5098228;28;20082;-63
2022/11/27 04:12:55;;;;;;;233.30;121.55;;;6.10;99.90;;;;;;5098287;28;20445;-62
2022/11/27 04:15:21;;;;;;;286.40;139.18;;;6.10;99.90;;;;;;5098134;28;20050;-63
2022/11/27 04:17:47;;;;;;;257.95;129.55;;;6.00;99.90;;;;;;5101839;28;20024;-62
2022/11/27 04:20:14;;;;;;;252.52;130.40;;;6.00;99.90;;;;;;5118599;28;20419;-63
2022/11/27 04:22:40;;;;;;;255.73;128.98;;;6.00;99.90;;;;;;5118382;28;20031;-62
2022/11/27 04:25:06;;;;;;;239.77;124.45;;;6.00;99.90;;;;;;5118597;28;20028;-63
2022/11/27 04:27:32;;;;;;;251.35;128.93;;;6.00;99.90;;;;;;5117277;28;20114;-62
2022/11/27 04:29:58;;;;;;;239.82;128.05;;;6.00;99.90;;;;;;5118386;28;20066;-63
2022/11/27 04:32:24;;;;;;;237.75;121.55;;;6.00;99.90;;;;;;5118089;28;20027;-63
2022/11/27 04:34:50;;;;;;;222.05;118.95;;;6.00;99.90;;;;;;5118278;28;20023;-63
2022/11/27 04:37:16;;;;;;;222.27;117.68;;;5.90;99.90;;;;;;5118355;28;20072;-62
2022/11/27 04:39:42;;;;;;;220.68;119.88;;;6.00;99.90;;;;;;5118159;28;20031;-63
2022/11/27 04:42:08;;;;;;;221.10;117.53;;;6.00;99.90;;;;;;5118107;28;20464;-62
2022/11/27 04:44:33;;;;;;;226.98;120.25;;;5.90;99.90;;;;;;5118077;28;20381;-62
2022/11/27 04:46:59;;;;;;;212.63;112.47;;;6.00;99.90;;;;;;5118077;28;20027;-63
2022/11/27 04:49:25;;;;;;;216.25;115.25;;;6.10;99.90;;;;;;5117917;28;20055;-62
2022/11/27 04:51:51;;;;;;;211.07;113.18;;;6.10;99.90;;;;;;5117569;28;20046;-62
2022/11/27 04:54:17;;;;;;;206.40;112.68;;;6.00;99.90;;;;;;5118043;28;20030;-63
2022/11/27 04:56:43;;;;;;;211.75;115.22;;;6.00;99.90;;;;;;5117734;28;20111;-62
2022/11/27 04:59:09;;;;;;;208.20;112.10;;;6.00;99.90;;;;;;5117729;28;20098;-62
2022/11/27 05:01:35;;;;;;;203.57;108.88;;;6.00;99.90;;;;;;5117780;28;20034;-62
2022/11/27 05:04:01;;;;;;;207.20;107.72;;;6.00;99.90;;;;;;5117661;28;20023;-62
2022/11/27 05:06:27;;;;;;;217.50;112.50;;;6.00;99.90;;;;;;5117537;28;20038;-62
2022/11/27 05:08:58;;;;;;;233.10;123.53;;;6.00;99.90;;;;;;5117510;28;20042;-63
2022/11/27 05:11:25;;;;;;;235.35;126.97;;;6.00;99.90;;;;;;5117492;28;20027;-62
2022/11/27 05:14:13;;;;;;;236.23;125.25;;;6.00;99.90;;;;;;5117120;28;20381;-62
2022/11/27 05:16:36;;;;;;;207.25;113.40;;;6.10;99.90;;;;;;5096601;28;20036;-62
2022/11/27 05:19:02;;;;;;;221.82;115.75;;;6.10;99.90;;;;;;5096951;28;20386;-62
2022/11/27 05:21:29;;;;;;;217.10;114.38;;;6.10;99.90;;;;;;5096860;28;20024;-62
2022/11/27 05:23:55;;;;;;;231.43;120.60;;;6.10;99.90;;;;;;5117108;28;20055;-63
2022/11/27 05:26:21;;;;;;;227.68;117.85;;;6.20;99.90;;;;;;5117432;28;20554;-62
2022/11/27 05:28:46;;;;;;;225.55;117.13;;;6.10;99.90;;;;;;5117176;28;20034;-63
2022/11/27 05:31:12;;;;;;;212.05;111.18;;;6.20;99.90;;;;;;5117105;28;20066;-63
2022/11/27 05:33:38;;;;;;;216.07;114.25;;;6.30;99.90;;;;;;5117092;28;20019;-62
2022/11/27 05:36:04;;;;;;;226.90;119.22;;;6.30;99.90;;;;;;5117137;28;20370;-62
2022/11/27 05:38:30;;;;;;;213.30;114.20;;;6.20;99.90;;;;;;5117106;28;20027;-63
2022/11/27 05:40:56;;;;;;;214.00;116.32;;;6.40;99.90;;;;;;5116999;28;20031;-62
2022/11/27 05:43:22;;;;;;;194.32;111.72;;;6.50;99.90;;;;;;5116798;28;20023;-63
2022/11/27 05:45:48;;;;;;;198.35;111.47;;;6.50;99.90;;;;;;5116867;28;20032;-63
2022/11/27 05:48:13;;;;;;;196.02;111.57;;;6.30;99.90;;;;;;5116999;28;20035;-62
2022/11/27 05:50:39;;;;;;;201.18;110.80;;;6.30;99.90;;;;;;5107994;28;20032;-62
2022/11/27 05:53:05;;;;;;;208.38;116.07;;;6.30;99.90;;;;;;5096346;28;20032;-63
2022/11/27 05:55:31;;;;;;;199.10;109.05;;;6.20;99.90;;;;;;5096377;28;20058;-63
2022/11/27 05:57:57;;;;;;;205.85;114.22;;;6.20;99.90;;;;;;5096138;28;20020;-63
2022/11/27 06:00:25;;;;;;;192.68;110.03;;;6.30;99.90;;;;;;5096227;28;20027;-62
2022/11/27 06:02:52;;;;;;;217.98;121.13;;;6.10;99.90;;;;;;5096253;28;20354;-62
2022/11/27 06:05:17;;;;;;;204.60;115.90;;;6.10;99.90;;;;;;5096101;28;20054;-62
2022/11/27 06:07:43;;;;;;;206.60;116.93;;;6.10;99.90;;;;;;5096029;28;20032;-62
2022/11/27 06:10:09;;;;;;;203.73;111.70;;;6.10;99.90;;;;;;5095928;28;20377;-62
2022/11/27 06:12:35;;;;;;;202.75;111.07;;;6.30;99.90;;;;;;5095913;28;20111;-62
2022/11/27 06:15:01;;;;;;;197.60;107.13;;;6.40;99.90;;;;;;5104922;28;20085;-62
2022/11/27 06:17:27;;;;;;;195.15;107.72;;;6.30;99.90;;;;;;5115479;28;20097;-62
2022/11/27 06:19:53;;;;;;;209.95;115.63;;;6.30;99.90;;;;;;5097866;28;20473;-62
2022/11/27 06:22:19;;;;;;;202.27;110.60;;;6.20;99.90;;;;;;5116283;28;20169;-62
2022/11/27 06:24:45;;;;;;;217.20;113.97;;;6.20;99.90;;;;;;5116057;28;20397;-62
2022/11/27 06:27:11;;;;;;;234.38;124.10;;;6.10;99.90;;;;;;5115742;28;20035;-62
2022/11/27 06:29:37;;;;;;;211.98;113.05;;;6.20;99.90;;;;;;5116175;28;20385;-62
2022/11/27 06:32:05;;;;;;;197.90;106.95;;;6.20;99.90;;;;;;5115917;28;20362;-62
2022/11/27 06:34:31;;;;;;;226.80;122.18;;;6.20;99.90;;;;;;5115833;28;20084;-62
2022/11/27 06:36:57;;;;;;;236.00;122.50;;;6.20;99.90;;;;;;5115865;28;20032;-62
2022/11/27 06:39:23;;;;;;;231.48;123.53;;;6.20;99.90;;;;;;5115832;28;20103;-63
2022/11/27 06:41:48;;;;;;;194.55;106.43;;;6.20;99.90;;;;;;5115736;28;20020;-62
2022/11/27 06:44:14;;;;;;;208.05;113.72;;;6.10;99.90;;;;;;5115838;28;20024;-62
2022/11/27 06:46:40;;;;;;;210.95;116.72;;;6.20;99.90;;;;;;5115688;28;20020;-62
2022/11/27 06:49:06;;;;;;;212.15;117.82;;;6.10;99.90;;;;;;5115624;28;20019;-62
2022/11/27 06:51:32;;;;;;;204.27;114.93;;;6.20;99.90;;;;;;5115496;28;20051;-62
2022/11/27 06:53:59;;;;;;;236.15;130.20;;;6.30;99.90;;;;;;5115574;28;20115;-62
2022/11/27 06:56:27;;;;;;;229.38;127.03;;;6.20;99.90;;;;;;5115276;28;20035;-62
2022/11/27 06:58:58;;;;;;;231.75;122.28;;;6.20;99.90;;;;;;5115339;28;20015;-62
2022/11/27 07:01:26;;;;;;;213.35;117.28;;;6.40;99.90;;;;;;5115445;28;20027;-62
2022/11/27 07:03:52;;;;;;;241.27;127.72;;;6.40;99.90;;;;;;5115677;28;20104;-63
2022/11/27 07:06:21;;;;;;;234.38;124.82;;;6.40;99.90;;;;;;5115331;28;20031;-62
2022/11/27 07:08:47;;;;;;;225.35;121.50;;;6.40;99.90;;;;;;5115237;28;20027;-62
2022/11/27 07:11:21;;;;;;;235.65;124.60;;;6.50;99.90;;;;;;5115270;28;20439;-62
2022/11/27 07:13:48;;;;;;;222.77;120.28;;;6.50;99.90;;;;;;5115336;28;20036;-62
2022/11/27 07:16:16;;;;;;;214.05;118.72;;;6.60;99.90;;;;;;5115061;28;20075;-62
2022/11/27 07:18:46;;;;;;;190.68;110.43;;;6.60;99.90;;;;;;5103805;28;20442;-62
2022/11/27 07:21:12;;;;;;;194.67;108.17;;;6.60;99.90;;;;;;5095095;28;20028;-62
2022/11/27 07:23:39;;;;;;;201.93;113.35;;;6.70;99.90;;;;;;5094777;28;20269;-62
2022/11/27 07:26:07;;;;;;;197.60;107.38;;;6.70;99.90;;;;;;5115102;28;20024;-62
2022/11/27 07:28:33;;;;;;;208.93;109.55;;;6.70;99.90;;;;;;5115188;28;20031;-62
2022/11/27 07:30:59;;;;;;;198.65;109.05;;;6.70;99.90;;;;;;5114924;28;20330;-61
2022/11/27 07:33:25;;;;;;;201.45;110.95;;;6.70;99.90;;;;;;5114860;28;20484;-62
2022/11/27 07:36:06;;;;;;;199.48;106.15;;;6.70;99.90;;;;;;5114886;28;20076;-62
2022/11/27 07:38:32;;;;;;;;;;;6.70;99.90;;;;;;5114839;28;20031;-62
2022/11/27 07:41:02;;;;;;;199.35;105.72;;;6.80;99.90;;;;;;5114968;28;19907;-62
2022/11/27 07:43:29;;;;;;;207.48;110.90;;;6.70;99.90;;;;;;5096702;28;20073;-62
2022/11/27 07:45:55;;;;;;;195.30;107.07;;;6.60;99.90;;;;;;5114679;28;20034;-62
2022/11/27 07:48:21;;;;;;;202.32;109.53;;;6.60;99.90;;;;;;5114786;28;20020;-62
2022/11/27 07:50:47;;;;;;;193.70;107.85;;;6.60;99.90;;;;;;5114727;28;20325;-62
2022/11/27 07:53:13;;;;;;;187.15;103.05;;;6.70;99.90;;;;;;5114730;28;20034;-62
2022/11/27 07:55:40;;;;;;;191.65;109.13;;;6.70;99.90;;;;;;5114640;28;20038;-62
2022/11/27 07:58:07;;;;;;;208.82;115.90;;;6.70;99.90;;;;;;5114854;28;20297;-62
2022/11/27 08:00:34;;;;;;;186.55;105.50;;;6.60;99.90;;;;;;5114815;28;20446;-62
2022/11/27 08:03:00;;;;;;;180.85;100.13;;;6.80;99.90;;;;;;5114768;28;20066;-62
2022/11/27 08:05:26;;;;;;;185.02;107.35;;;6.70;99.90;;;;;;5114618;28;20385;-62
2022/11/27 08:07:52;;;;;;;201.10;116.25;;;7.00;99.90;;;;;;5114735;28;20027;-62
2022/11/27 08:10:18;;;;;;;199.32;115.55;;;7.10;99.90;;;;;;5114564;28;20461;-62
2022/11/27 08:12:43;;;;;;;203.27;113.63;;;7.20;99.90;;;;;;5114350;28;20027;-62
2022/11/27 08:15:10;;;;;;;174.23;97.88;;;7.30;99.90;;;;;;5114584;28;20051;-62
2022/11/27 08:17:36;;;;;;;182.80;99.63;;;7.30;99.90;;;;;;5114310;28;20077;-62
2022/11/27 08:20:03;;;;;;;183.85;100.50;;;7.30;99.90;;;;;;5114628;28;20180;-62
2022/11/27 08:22:29;;;;;;;188.57;101.70;;;7.40;99.90;;;;;;5114602;28;20077;-62
2022/11/27 08:24:55;;;;;;;191.98;100.75;;;7.30;99.90;;;;;;5114628;28;20035;-61
2022/11/27 08:27:21;;;;;;;183.23;100.20;;;7.40;99.90;;;;;;5114809;28;20098;-61
2022/11/27 08:29:47;;;;;;;184.13;103.10;;;7.40;99.90;;;;;;5114541;28;20028;-61
2022/11/27 08:32:13;;;;;;;191.50;100.78;;;7.50;99.90;;;;;;5114202;28;20039;-61
2022/11/27 08:34:39;;;;;;;182.85;96.15;;;7.40;99.90;;;;;;5114525;28;20044;-62
2022/11/27 08:37:06;;;;;;;175.57;95.55;;;7.50;99.90;;;;;;5114485;28;20019;-62
2022/11/27 08:39:32;;;;;;;169.75;95.10;;;7.50;99.90;;;;;;5114714;28;20076;-61
2022/11/27 08:41:58;;;;;;;167.25;89.40;;;7.60;99.90;;;;;;5114349;28;20506;-61
2022/11/27 08:44:24;;;;;;;170.45;92.07;;;7.50;99.90;;;;;;5114352;28;20084;-62
2022/11/27 08:46:49;;;;;;;159.43;86.60;;;7.50;99.90;;;;;;5114349;28;20020;-62
2022/11/27 08:49:16;;;;;;;155.82;85.63;;;7.60;99.90;;;;;;5115503;28;20027;-62
2022/11/27 08:51:41;;;;;;;160.02;87.63;;;7.60;99.90;;;;;;5117897;28;20031;-62
2022/11/27 08:54:07;;;;;;;148.18;81.35;;;7.70;99.90;;;;;;5117673;28;20024;-62
2022/11/27 08:56:34;;;;;;;157.32;84.50;;;7.70;99.90;;;;;;5117584;28;20070;-61
2022/11/27 08:59:01;;;;;;;162.43;88.00;;;7.80;99.90;;;;;;5117956;28;20050;-62
2022/11/27 09:01:29;;;;;;;164.00;86.50;;;7.80;99.90;;;;;;5117471;28;20456;-62
2022/11/27 09:03:56;;;;;;;165.50;83.45;;;7.80;99.90;;;;;;5118059;28;20034;-62
2022/11/27 09:06:24;;;;;;;154.95;81.32;;;7.90;99.90;;;;;;5117669;28;20030;-61
2022/11/27 09:08:50;;;;;;;142.52;79.97;;;8.00;99.90;;;;;;5117533;28;20038;-61
2022/11/27 09:11:19;;;;;;;142.85;77.47;;;8.00;99.90;;;;;;5117644;28;20024;-62
2022/11/27 09:13:45;;;;;;;132.98;76.47;;;8.00;99.90;;;;;;5117433;28;20059;-62
2022/11/27 09:16:15;;;;;;;128.75;71.82;;;8.00;99.90;;;;;;5116934;28;20135;-62
2022/11/27 09:18:47;;;;;;;137.15;74.88;;;8.20;99.90;;;;;;5117486;28;20035;-62
2022/11/27 09:21:14;;;;;;;131.55;72.72;;;8.30;99.90;;;;;;5117263;28;20027;-62
2022/11/27 09:23:40;;;;;;;119.53;70.45;;;8.20;99.90;;;;;;5117397;28;20032;-62
2022/11/27 09:26:12;;;;;;;125.65;70.53;;;8.30;99.90;;;;;;5117391;28;20031;-62
2022/11/27 09:28:39;;;;;;;145.00;76.80;;;8.30;99.90;;;;;;5117267;28;20076;-62
2022/11/27 09:31:06;;;;;;;156.70;79.72;;;8.20;99.90;;;;;;5117231;28;20020;-61
2022/11/27 09:33:34;;;;;;;151.35;79.18;;;8.30;99.90;;;;;;5117054;28;20028;-62
2022/11/27 09:36:17;;;;;;;140.60;73.05;;;8.40;99.90;;;;;;5116963;28;20465;-61
2022/11/27 09:38:44;;;;;;;142.93;74.60;;;8.50;99.90;;;;;;5117026;28;20031;-62
2022/11/27 09:41:10;;;;;;;141.75;71.05;;;8.50;99.90;;;;;;5117202;28;20378;-62
2022/11/27 09:43:58;;;;;;;127.68;68.47;;;8.60;99.90;;;;;;5117020;28;20381;-62
2022/11/27 09:46:44;;;;;;;150.75;75.05;;;8.70;99.90;;;;;;5116715;28;20481;-63
2022/11/27 09:49:28;;;;;;;140.30;74.00;;;8.90;99.90;;;;;;5116512;28;20443;-62
2022/11/27 09:52:21;;;;;;;142.05;72.95;;;8.80;99.90;;;;;;5116758;28;20038;-63
2022/11/27 09:55:00;;;;;;;150.82;74.80;;;8.80;99.90;;;;;;5116644;28;20034;-62
2022/11/27 09:57:36;;;;;;;151.10;79.57;;;8.80;99.90;;;;;;5116526;28;20629;-62
2022/11/27 10:00:12;;;;;;;150.57;77.00;;;8.80;99.90;;;;;;5098457;28;20046;-62
2022/11/27 10:02:41;;;;;;;155.15;78.28;;;8.80;99.90;;;;;;5116226;28;20027;-62
2022/11/27 10:05:43;;;;;;;155.43;78.82;;;8.80;99.90;;;;;;5116424;28;20023;-62
2022/11/27 10:08:35;;;;;;;155.68;77.35;;;8.80;99.90;;;;;;5084217;28;20046;-62
2022/11/27 10:11:22;;;;;;;159.90;76.10;;;8.70;99.90;;;;;;5116442;28;20019;-62
2022/11/27 10:14:07;;;;;;;151.63;75.78;;;8.70;99.90;;;;;;5116281;28;20030;-62
2022/11/27 10:16:40;;;;;;;153.25;76.05;;;8.60;99.90;;;;;;5116220;28;20047;-62
2022/11/27 10:19:20;;;;;;;161.15;79.60;;;8.60;99.90;;;;;;5116055;28;20028;-62
2022/11/27 10:21:51;;;;;;;138.00;70.80;;;8.60;99.90;;;;;;5116012;28;20424;-62
2022/11/27 10:24:35;;;;;;;158.55;77.95;;;8.60;99.90;;;;;;5116244;28;20032;-62
2022/11/27 10:27:02;;;;;;;165.48;79.22;;;8.50;99.90;;;;;;5115956;28;20024;-62
2022/11/27 10:29:40;;;;;;;171.55;82.28;;;8.60;99.90;;;;;;5115844;28;20464;-62
2022/11/27 10:32:14;;;;;;;176.38;85.57;;;8.60;99.90;;;;;;5115735;28;20031;-62
2022/11/27 10:34:48;;;;;;;196.90;90.47;;;8.60;99.90;;;;;;5115974;28;20020;-62
2022/11/27 10:37:27;;;;;;;186.65;90.38;;;8.70;99.90;;;;;;5115826;28;20028;-62
2022/11/27 10:40:01;;;;;;;186.80;89.75;;;8.80;99.90;;;;;;5115896;28;20026;-62
2022/11/27 10:42:59;;;;;;;194.90;93.90;;;8.90;99.90;;;;;;5115791;28;20031;-62
2022/11/27 10:45:52;;;;;;;169.35;81.75;;;9.10;99.90;;;;;;5115623;28;20059;-62
2022/11/27 10:48:19;;;;;;;190.27;87.22;;;9.10;99.90;;;;;;5105205;28;20093;-62
2022/11/27 10:50:45;;;;;;;210.48;90.97;;;9.30;99.90;;;;;;5115563;28;20024;-62
2022/11/27 10:53:19;;;;;;;202.10;91.07;;;9.40;99.90;;;;;;5097196;28;20075;-62
2022/11/27 10:55:47;;;;;;;226.68;96.63;;;9.60;99.90;;;;;;5115493;28;20036;-62
2022/11/27 10:58:26;;;;;;;220.23;96.00;;;9.70;99.90;;;;;;5115499;28;20019;-62
2022/11/27 11:01:10;;;;;;;230.27;94.32;;;9.90;99.90;;;;;;5115564;28;20027;-62
2022/11/27 11:03:36;;;;;;;241.88;99.13;;;9.90;99.90;;;;;;5115438;28;20062;-62
2022/11/27 11:06:12;;;;;;;233.02;97.22;;;10.00;99.90;;;;;;5115489;28;20117;-62
2022/11/27 11:08:38;;;;;;;231.95;98.90;;;10.20;99.90;;;;;;5115386;28;20423;-62
2022/11/27 11:11:07;;;;;;;280.33;110.22;;;10.20;99.90;;;;;;5115444;28;20028;-62
2022/11/27 11:13:39;;;;;;;251.55;102.28;;;10.20;99.90;;;;;;5114384;28;20020;-62
2022/11/27 11:16:11;;;;;;;239.00;98.75;;;10.20;99.90;;;;;;5133067;27;20050;-62
2022/11/27 11:18:43;;;;;;;314.88;120.28;;;10.30;99.90;;;;;;5125075;27;20068;-62
2022/11/27 11:21:16;;;;;;;320.60;121.57;;;10.30;99.90;;;;;;5115060;28;20131;-63
2022/11/27 11:23:42;;;;;;;290.35;115.88;;;10.20;99.90;;;;;;5115114;28;20032;-62
2022/11/27 11:26:11;;;;;;;247.02;101.40;;;10.30;99.90;;;;;;5115016;28;20039;-63
2022/11/27 11:28:47;;;;;;;235.50;100.40;;;10.00;99.90;;;;;;5115085;28;20469;-62
2022/11/27 11:31:21;;;;;;;222.60;94.22;;;10.00;99.90;;;;;;5114894;28;20035;-62
2022/11/27 11:33:59;;;;;;;217.02;91.90;;;10.00;99.90;;;;;;5114949;28;20032;-62
2022/11/27 11:36:25;;;;;;;197.13;86.45;;;10.00;99.90;;;;;;5096925;28;20362;-62
2022/11/27 11:38:52;;;;;;;205.60;89.65;;;10.10;99.90;;;;;;5114816;28;20081;-62
2022/11/27 11:41:19;;;;;;;218.82;90.32;;;10.00;99.90;;;;;;5115111;28;20529;-63
2022/11/27 11:43:58;;;;;;;192.10;85.35;;;10.00;99.90;;;;;;5114844;28;20035;-62
2022/11/27 11:46:27;;;;;;;171.73;79.40;;;10.10;99.90;;;;;;5114769;28;20032;-62
2022/11/27 11:49:18;;;;;;;157.77;74.20;;;10.10;99.90;;;;;;5114919;28;20036;-62
2022/11/27 11:51:53;;;;;;;139.95;66.07;;;10.10;99.90;;;;;;5114769;28;20028;-62
2022/11/27 11:54:31;;;;;;;140.45;66.85;;;9.70;99.90;;;;;;5114710;28;20389;-62
2022/11/27 11:57:01;;;;;;;124.25;64.47;;;9.70;99.90;;;;;;5114728;28;20031;-62
2022/11/27 11:59:40;;;;;;;111.38;58.13;;;9.70;99.90;;;;;;5114742;28;20039;-62
2022/11/27 12:02:18;;;;;;;59.45;33.55;;;9.70;99.90;;;;;;5114820;28;20035;-63
2022/11/27 12:05:17;;;;;;;62.28;35.65;;;9.80;99.90;;;;;;5114763;28;20045;-63
2022/11/27 12:07:55;;;;;;;57.35;35.35;;;9.60;99.90;;;;;;5114692;28;20039;-62
2022/11/27 12:10:29;;;;;;;57.55;36.00;;;9.60;99.90;;;;;;5114681;28;20032;-62
2022/11/27 12:13:11;;;;;;;56.65;34.40;;;9.70;99.90;;;;;;5114676;28;20038;-63
2022/11/27 12:15:52;;;;;;;59.45;36.67;;;9.80;99.90;;;;;;5114534;28;20044;-63
2022/11/27 12:18:36;;;;;;;61.50;37.15;;;9.70;99.90;;;;;;5114514;28;20024;-62
2022/11/27 12:21:15;;;;;;;63.42;37.60;;;9.80;99.90;;;;;;5114623;28;20028;-62
2022/11/27 12:24:18;;;;;;;67.28;36.63;;;9.80;99.90;;;;;;5114976;28;20498;-63
2022/11/27 12:27:02;;;;;;;61.80;36.28;;;9.80;99.90;;;;;;5118425;28;20027;-62
2022/11/27 12:29:28;;;;;;;61.63;35.83;;;9.80;99.90;;;;;;5118430;28;20032;-62
2022/11/27 12:32:12;;;;;;;63.25;37.47;;;9.80;99.90;;;;;;5118213;28;20093;-62
2022/11/27 12:34:46;;;;;;;58.50;36.42;;;9.80;99.90;;;;;;5118233;28;20019;-62
2022/11/27 12:37:27;;;;;;;62.05;38.63;;;9.80;99.90;;;;;;5118259;28;20558;-62
2022/11/27 12:40:17;;;;;;;66.68;36.88;;;9.80;99.90;;;;;;5118460;28;20027;-62